createdAt,value
2023-05-06T00:01:09.434Z,46.34
2023-05-06T00:03:44.555Z,46.83
2023-05-06T00:06:16.494Z,47.18
2023-05-06T00:08:48.284Z,47.69
2023-05-06T00:11:20.095Z,47.51
2023-05-06T00:13:51.997Z,47.36
2023-05-06T00:16:23.800Z,48.03
2023-05-06T00:18:55.661Z,48.50
2023-05-06T00:21:27.629Z,48.83
2023-05-06T00:23:59.432Z,49.27
2023-05-06T00:26:31.272Z,49.45
2023-05-06T00:29:02.992Z,49.79
2023-05-06T00:31:34.773Z,49.96
2023-05-06T00:34:06.579Z,50.69
2023-05-06T00:36:38.532Z,50.78
2023-05-06T00:39:10.391Z,50.90
2023-05-06T00:41:42.131Z,51.06
2023-05-06T00:44:13.883Z,50.91
2023-05-06T00:46:45.929Z,51.33
2023-05-06T00:49:17.729Z,51.45
2023-05-06T00:51:53.969Z,51.52
2023-05-06T00:54:27.345Z,51.43
2023-05-06T00:56:59.163Z,51.41
2023-05-06T00:59:35.443Z,51.14
2023-05-06T01:02:07.183Z,51.29
2023-05-06T01:04:41.518Z,51.46
2023-05-06T01:07:39.885Z,51.74
2023-05-06T01:10:28.124Z,51.95
2023-05-06T01:13:12.320Z,52.18
2023-05-06T01:15:52.612Z,52.85
2023-05-06T01:18:26.892Z,52.29
2023-05-06T01:21:04.643Z,52.16
2023-05-06T01:23:57.735Z,52.10
2023-05-06T01:26:29.858Z,51.81
2023-05-06T01:29:02.487Z,52.04
2023-05-06T01:31:45.770Z,52.27
2023-05-06T01:34:17.410Z,52.14
2023-05-06T01:37:13.841Z,51.92
2023-05-06T01:39:46.731Z,51.69
2023-05-06T01:42:19.162Z,51.88
2023-05-06T01:44:53.195Z,52.10
2023-05-06T01:47:25.832Z,52.17
2023-05-06T01:49:58.522Z,52.44
2023-05-06T01:52:30.332Z,53.03
2023-05-06T01:55:02.107Z,53.06
2023-05-06T01:57:34.976Z,53.23
2023-05-06T02:00:07.386Z,54.09
2023-05-06T02:02:43.902Z,54.77
2023-05-06T02:05:15.837Z,55.57
2023-05-06T02:07:51.840Z,55.70
2023-05-06T02:10:24.161Z,56.22
2023-05-06T02:13:02.672Z,56.70
2023-05-06T02:15:34.585Z,58.22
2023-05-06T02:18:07.412Z,58.61
2023-05-06T02:20:39.946Z,58.92
2023-05-06T02:23:11.933Z,59.18
2023-05-06T02:25:44.654Z,61.51
2023-05-06T02:28:17.868Z,61.36
2023-05-06T02:30:49.637Z,61.98
2023-05-06T02:33:21.881Z,62.39
2023-05-06T02:35:53.685Z,63.38
2023-05-06T02:38:26.084Z,63.76
2023-05-06T02:40:58.366Z,64.22
2023-05-06T02:43:31.278Z,64.60
2023-05-06T02:46:03.665Z,65.42
2023-05-06T02:48:35.458Z,66.14
2023-05-06T02:51:08.818Z,66.22
2023-05-06T02:53:40.595Z,66.87
2023-05-06T02:56:12.329Z,67.26
2023-05-06T02:58:44.148Z,67.99
2023-05-06T03:01:15.956Z,67.30
2023-05-06T03:03:48.057Z,68.25
2023-05-06T03:06:19.761Z,68.87
2023-05-06T03:08:51.818Z,68.79
2023-05-06T03:11:23.573Z,68.31
2023-05-06T03:13:55.376Z,69.48
2023-05-06T03:16:27.569Z,69.90
2023-05-06T03:19:03.931Z,69.68
2023-05-06T03:21:37.612Z,69.65
2023-05-06T03:24:09.419Z,70.81
2023-05-06T03:26:41.222Z,70.05
2023-05-06T03:29:14.252Z,71.33
2023-05-06T03:31:51.415Z,71.73
2023-05-06T03:34:25.680Z,70.84
2023-05-06T03:36:58.069Z,71.70
2023-05-06T03:39:32.186Z,71.80
2023-05-06T03:42:08.576Z,71.93
2023-05-06T03:44:41.876Z,72.33
2023-05-06T03:47:13.684Z,72.36
2023-05-06T03:49:45.470Z,72.67
2023-05-06T03:52:18.185Z,72.63
2023-05-06T03:54:53.313Z,72.64
2023-05-06T03:57:25.295Z,71.56
2023-05-06T03:59:57.046Z,71.72
2023-05-06T04:02:30.714Z,71.19
2023-05-06T04:05:04.023Z,71.54
2023-05-06T04:07:38.869Z,71.03
2023-05-06T04:10:11.433Z,71.14
2023-05-06T04:12:44.973Z,70.72
2023-05-06T04:15:19.334Z,71.29
2023-05-06T04:17:51.075Z,71.58
2023-05-06T04:20:25.330Z,71.64
2023-05-06T04:22:57.742Z,72.15
2023-05-06T04:25:30.220Z,71.92
2023-05-06T04:28:01.904Z,72.42
2023-05-06T04:30:34.212Z,72.32
2023-05-06T04:33:07.423Z,72.20
2023-05-06T04:35:40.523Z,72.21
2023-05-06T04:38:15.812Z,71.14
2023-05-06T04:40:48.395Z,70.57
2023-05-06T04:43:21.364Z,70.65
2023-05-06T04:45:57.427Z,71.14
2023-05-06T04:48:33.378Z,70.96
2023-05-06T04:51:06.656Z,71.43
2023-05-06T04:53:39.051Z,71.12
2023-05-06T04:56:10.892Z,71.67
2023-05-06T04:58:42.702Z,71.51
2023-05-06T05:01:15.183Z,71.80
2023-05-06T05:03:49.657Z,71.70
2023-05-06T05:06:24.300Z,71.68
2023-05-06T05:08:57.277Z,72.14
2023-05-06T05:11:29.651Z,72.83
2023-05-06T05:14:03.400Z,72.52
2023-05-06T05:16:36.179Z,72.78
2023-05-06T05:19:09.655Z,72.30
2023-05-06T05:21:41.805Z,72.43
2023-05-06T05:24:15.995Z,72.27
2023-05-06T05:26:47.730Z,72.94
2023-05-06T05:29:21.121Z,72.27
2023-05-06T05:31:53.144Z,72.56
2023-05-06T05:34:24.830Z,73.07
2023-05-06T05:36:59.828Z,73.37
2023-05-06T05:39:31.680Z,73.25
2023-05-06T05:42:06.386Z,72.83
2023-05-06T05:44:41.153Z,73.67
2023-05-06T05:47:12.972Z,73.62
2023-05-06T05:49:44.822Z,73.20
2023-05-06T05:52:17.371Z,72.84
2023-05-06T05:54:52.442Z,72.27
2023-05-06T05:57:26.971Z,71.60
2023-05-06T05:59:58.685Z,71.13
2023-05-06T06:02:34.668Z,70.42
2023-05-06T06:05:09.801Z,69.79
2023-05-06T06:07:42.444Z,69.40
2023-05-06T06:10:15.417Z,68.85
2023-05-06T06:12:48.289Z,68.76
2023-05-06T06:15:24.586Z,68.88
2023-05-06T06:17:58.348Z,68.66
2023-05-06T06:20:32.388Z,68.69
2023-05-06T06:23:04.273Z,67.90
2023-05-06T06:25:36.016Z,67.54
2023-05-06T06:28:07.775Z,67.10
2023-05-06T06:30:39.521Z,66.64
2023-05-06T06:33:11.638Z,66.46
2023-05-06T06:35:44.930Z,66.40
2023-05-06T06:38:16.655Z,66.98
2023-05-06T06:40:48.398Z,67.14
2023-05-06T06:43:20.221Z,67.15
2023-05-06T06:46:01.256Z,66.70
2023-05-06T06:48:33.016Z,66.38
2023-05-06T06:51:05.147Z,66.74
2023-05-06T06:53:36.968Z,66.67
2023-05-06T06:56:10.931Z,65.40
2023-05-06T06:58:42.797Z,63.96
2023-05-06T07:01:14.546Z,61.81
2023-05-06T07:03:46.873Z,60.46
2023-05-06T07:06:18.640Z,59.03
2023-05-06T07:08:52.582Z,58.41
2023-05-06T07:11:24.441Z,57.80
2023-05-06T07:13:56.246Z,57.01
2023-05-06T07:16:28.202Z,55.95
2023-05-06T07:19:01.066Z,55.27
2023-05-06T07:21:33.088Z,54.90
2023-05-06T07:24:05.035Z,54.44
2023-05-06T07:26:38.339Z,53.09
2023-05-06T07:29:10.198Z,52.01
2023-05-06T07:31:41.958Z,50.69
2023-05-06T07:34:13.711Z,49.77
2023-05-06T07:36:45.527Z,49.85
2023-05-06T07:39:18.537Z,50.03
2023-05-06T07:41:50.251Z,50.87
2023-05-06T07:44:22.000Z,52.04
2023-05-06T07:46:54.224Z,52.62
2023-05-06T07:49:28.786Z,53.03
2023-05-06T07:52:00.629Z,53.88
2023-05-06T07:54:32.416Z,54.53
2023-05-06T07:57:04.221Z,55.20
2023-05-06T07:59:38.064Z,55.95
2023-05-06T08:02:10.078Z,55.91
2023-05-06T08:04:42.795Z,55.58
2023-05-06T08:07:15.820Z,56.09
2023-05-06T08:09:47.542Z,56.07
2023-05-06T08:12:19.224Z,56.03
2023-05-06T08:14:50.947Z,55.49
2023-05-06T08:17:22.708Z,53.74
2023-05-06T08:19:55.559Z,52.27
2023-05-06T08:22:27.333Z,49.91
2023-05-06T08:24:59.250Z,48.99
2023-05-06T08:27:31.172Z,49.37
2023-05-06T08:30:02.948Z,49.05
2023-05-06T08:32:34.699Z,49.01
2023-05-06T08:35:07.419Z,47.37
2023-05-06T08:37:41.132Z,48.57
2023-05-06T08:40:23.444Z,48.04
2023-05-06T08:42:56.121Z,48.21
2023-05-06T08:45:29.553Z,47.71
2023-05-06T08:48:01.481Z,47.41
2023-05-06T08:50:38.360Z,48.03
2023-05-06T08:53:15.877Z,47.41
2023-05-06T08:55:51.648Z,47.13
2023-05-06T08:58:25.073Z,46.62
2023-05-06T09:00:57.381Z,45.20
2023-05-06T09:03:29.669Z,45.25
2023-05-06T09:06:02.431Z,44.88
2023-05-06T09:08:37.425Z,43.19
2023-05-06T09:11:38.921Z,40.20
2023-05-06T09:14:13.674Z,40.69
2023-05-06T09:16:48.169Z,40.35
2023-05-06T09:19:21.747Z,39.85
2023-05-06T09:21:53.551Z,40.50
2023-05-06T09:24:25.774Z,40.08
2023-05-06T09:26:57.612Z,40.03
2023-05-06T09:29:29.299Z,40.46
2023-05-06T09:32:07.898Z,41.04
2023-05-06T09:34:42.101Z,41.74
2023-05-06T09:37:13.866Z,42.59
2023-05-06T09:39:45.901Z,43.52
2023-05-06T09:42:17.642Z,43.83
2023-05-06T09:44:50.386Z,44.40
2023-05-06T09:47:27.265Z,43.61
2023-05-06T09:49:59.468Z,44.01
2023-05-06T09:52:31.662Z,43.28
2023-05-06T09:55:04.420Z,42.61
2023-05-06T09:57:37.175Z,43.16
2023-05-06T10:00:12.050Z,44.02
2023-05-06T10:02:48.385Z,44.33
2023-05-06T10:05:21.208Z,44.00
2023-05-06T10:07:54.809Z,43.19
2023-05-06T10:10:28.415Z,42.87
2023-05-06T10:13:02.847Z,43.44
2023-05-06T10:15:34.892Z,43.49
2023-05-06T10:18:08.577Z,42.78
2023-05-06T10:20:42.247Z,41.17
2023-05-06T10:23:13.990Z,40.67
2023-05-06T10:25:46.859Z,40.35
2023-05-06T10:28:30.400Z,41.44
2023-05-06T10:31:04.756Z,41.18
2023-05-06T10:33:36.614Z,41.31
2023-05-06T10:36:22.666Z,41.80
2023-05-06T10:39:03.635Z,42.41
2023-05-06T10:41:37.141Z,42.49
2023-05-06T10:44:12.786Z,43.05
2023-05-06T10:46:59.709Z,43.78
2023-05-06T10:49:31.454Z,44.14
2023-05-06T10:52:12.388Z,43.66
2023-05-06T10:54:50.369Z,43.39
2023-05-06T10:57:26.670Z,42.64
2023-05-06T10:59:58.872Z,42.07
2023-05-06T11:02:32.742Z,42.89
2023-05-06T11:05:05.006Z,43.94
2023-05-06T11:07:36.766Z,44.18
2023-05-06T11:10:13.083Z,44.67
2023-05-06T11:12:50.315Z,44.64
2023-05-06T11:15:32.997Z,44.87
2023-05-06T11:18:26.866Z,45.02
2023-05-06T11:21:00.422Z,44.93
2023-05-06T11:24:02.668Z,43.70
2023-05-06T11:26:34.430Z,43.01
2023-05-06T11:29:09.842Z,42.87
2023-05-06T11:31:45.282Z,42.35
2023-05-06T11:34:28.384Z,43.22
2023-05-06T11:37:05.443Z,43.27
2023-05-06T11:39:40.774Z,43.51
2023-05-06T11:42:13.225Z,43.85
2023-05-06T11:44:44.911Z,44.01
2023-05-06T11:47:16.582Z,44.25
2023-05-06T11:49:54.576Z,44.61
2023-05-06T11:52:26.376Z,44.02
2023-05-06T11:54:58.090Z,41.22
2023-05-06T11:57:29.909Z,41.39
2023-05-06T12:00:02.160Z,41.17
2023-05-06T12:02:46.649Z,40.64
2023-05-06T12:05:23.518Z,40.39
2023-05-06T12:07:55.849Z,39.83
2023-05-06T12:10:27.621Z,40.44
2023-05-06T12:13:03.151Z,39.71
2023-05-06T12:15:36.970Z,38.18
2023-05-06T12:18:09.835Z,38.39
2023-05-06T12:20:41.612Z,37.26
2023-05-06T12:23:16.002Z,37.60
2023-05-06T12:26:04.901Z,36.18
2023-05-06T12:28:37.213Z,36.33
2023-05-06T12:31:22.424Z,35.85
2023-05-06T12:33:56.092Z,36.10
2023-05-06T12:36:29.365Z,35.24
2023-05-06T12:39:01.789Z,35.50
2023-05-06T12:41:37.712Z,36.50
2023-05-06T12:44:36.222Z,36.75
2023-05-06T12:47:18.753Z,36.41
2023-05-06T12:49:55.250Z,36.47
2023-05-06T12:52:29.595Z,37.29
2023-05-06T12:55:01.687Z,37.83
2023-05-06T12:57:33.406Z,39.00
2023-05-06T13:00:07.461Z,39.54
2023-05-06T13:02:39.308Z,39.57
2023-05-06T13:05:11.695Z,39.09
2023-05-06T13:07:43.468Z,37.84
2023-05-06T13:10:15.467Z,37.80
2023-05-06T13:12:48.531Z,38.52
2023-05-06T13:15:20.700Z,38.22
2023-05-06T13:17:52.535Z,37.79
2023-05-06T13:20:24.383Z,38.57
2023-05-06T13:22:56.062Z,38.32
2023-05-06T13:25:27.775Z,38.84
2023-05-06T13:27:59.451Z,39.09
2023-05-06T13:30:32.437Z,38.26
2023-05-06T13:33:04.139Z,38.89
2023-05-06T13:35:36.016Z,39.07
2023-05-06T13:38:07.702Z,38.89
2023-05-06T13:40:39.469Z,38.16
2023-05-06T13:43:11.801Z,37.97
2023-05-06T13:45:46.744Z,37.47
2023-05-06T13:48:18.662Z,36.91
2023-05-06T13:50:50.569Z,36.55
2023-05-06T13:53:22.507Z,35.43
2023-05-06T13:55:54.266Z,35.85
2023-05-06T13:58:26.086Z,37.00
2023-05-06T14:00:57.967Z,37.77
2023-05-06T14:03:29.851Z,36.72
2023-05-06T14:06:01.647Z,36.89
2023-05-06T14:08:33.487Z,36.19
2023-05-06T14:11:05.720Z,36.57
2023-05-06T14:13:37.901Z,35.70
2023-05-06T14:16:09.764Z,36.63
2023-05-06T14:18:41.437Z,37.35
2023-05-06T14:21:13.172Z,37.55
2023-05-06T14:23:44.903Z,38.04
2023-05-06T14:26:16.674Z,38.13
2023-05-06T14:28:48.362Z,38.38
2023-05-06T14:31:20.234Z,38.71
2023-05-06T14:33:51.933Z,38.27
2023-05-06T14:36:23.814Z,38.09
2023-05-06T14:38:55.608Z,37.86
2023-05-06T14:41:27.427Z,37.60
2023-05-06T14:43:59.405Z,38.77
2023-05-06T14:46:31.486Z,38.62
2023-05-06T14:49:03.202Z,38.06
2023-05-06T14:51:34.994Z,37.54
2023-05-06T14:54:07.127Z,37.36
2023-05-06T14:56:39.279Z,37.06
2023-05-06T14:59:10.967Z,36.99
2023-05-06T15:01:42.867Z,37.30
2023-05-06T15:04:14.623Z,37.54
2023-05-06T15:06:46.459Z,37.40
2023-05-06T15:09:18.145Z,37.17
2023-05-06T15:11:49.917Z,36.01
2023-05-06T15:14:21.600Z,36.33
2023-05-06T15:16:56.425Z,36.25
2023-05-06T15:19:28.172Z,36.28
2023-05-06T15:22:03.477Z,36.75
2023-05-06T15:24:35.953Z,37.26
2023-05-06T15:27:07.682Z,37.62
2023-05-06T15:29:39.537Z,37.63
2023-05-06T15:32:11.454Z,37.93
2023-05-06T15:34:45.783Z,38.06
2023-05-06T15:37:19.410Z,38.69
2023-05-06T15:39:57.662Z,38.71
2023-05-06T15:42:29.809Z,38.66
2023-05-06T15:45:02.767Z,38.86
2023-05-06T15:47:34.520Z,39.23
2023-05-06T15:50:16.434Z,39.46
2023-05-06T15:52:53.927Z,39.75
2023-05-06T15:55:26.596Z,40.06
2023-05-06T15:58:00.704Z,40.07
2023-05-06T16:00:32.885Z,40.21
2023-05-06T16:03:04.786Z,40.15
2023-05-06T16:05:36.678Z,39.98
2023-05-06T16:08:08.544Z,40.02
2023-05-06T16:10:40.284Z,40.41
2023-05-06T16:13:12.074Z,40.36
2023-05-06T16:15:44.106Z,40.00
2023-05-06T16:18:19.100Z,40.05
2023-05-06T16:20:50.988Z,40.73
2023-05-06T16:23:22.840Z,40.97
2023-05-06T16:26:01.137Z,41.33
2023-05-06T16:28:34.601Z,41.33
2023-05-06T16:31:06.558Z,41.72
2023-05-06T16:33:38.459Z,41.99
2023-05-06T16:36:12.538Z,41.97
2023-05-06T16:38:46.443Z,42.69
2023-05-06T16:41:24.180Z,42.34
2023-05-06T16:43:56.106Z,42.55
2023-05-06T16:46:28.947Z,43.29
2023-05-06T16:49:03.611Z,42.73
2023-05-06T16:51:35.481Z,43.27
2023-05-06T16:54:07.275Z,43.76
2023-05-06T16:56:50.628Z,44.10
2023-05-06T16:59:24.464Z,44.30
2023-05-06T17:01:56.274Z,44.43
2023-05-06T17:04:28.106Z,44.76
2023-05-06T17:06:59.841Z,45.36
2023-05-06T17:09:31.552Z,46.56
2023-05-06T17:12:05.652Z,45.63
2023-05-06T17:14:37.411Z,45.15
2023-05-06T17:17:11.606Z,44.70
2023-05-06T17:19:43.556Z,44.89
2023-05-06T17:22:15.356Z,45.40
2023-05-06T17:24:47.418Z,45.72
2023-05-06T17:27:19.231Z,45.71
2023-05-06T17:29:51.701Z,45.35
2023-05-06T17:32:23.404Z,45.63
2023-05-06T17:34:55.177Z,46.27
2023-05-06T17:37:27.392Z,46.25
2023-05-06T17:39:59.295Z,46.13
2023-05-06T17:42:32.010Z,45.71
2023-05-06T17:45:04.048Z,45.60
2023-05-06T17:47:36.040Z,46.01
2023-05-06T17:50:09.232Z,46.35
2023-05-06T17:52:41.050Z,46.37
2023-05-06T17:55:16.877Z,46.42
2023-05-06T17:57:49.469Z,46.64
2023-05-06T18:00:21.785Z,47.70
2023-05-06T18:02:53.539Z,48.03
2023-05-06T18:05:26.360Z,47.34
2023-05-06T18:07:58.507Z,48.00
2023-05-06T18:10:30.475Z,48.22
2023-05-06T18:13:02.350Z,48.26
2023-05-06T18:15:34.260Z,48.17
2023-05-06T18:18:06.186Z,48.16
2023-05-06T18:20:38.083Z,48.33
2023-05-06T18:23:10.089Z,47.98
2023-05-06T18:25:41.843Z,48.65
2023-05-06T18:28:13.541Z,48.81
2023-05-06T18:30:45.464Z,49.12
2023-05-06T18:33:20.164Z,48.67
2023-05-06T18:35:52.040Z,49.06
2023-05-06T18:38:26.439Z,49.30
2023-05-06T18:40:58.273Z,49.56
2023-05-06T18:43:30.789Z,49.65
2023-05-06T18:46:05.222Z,49.73
2023-05-06T18:48:37.281Z,49.99
2023-05-06T18:51:20.832Z,50.25
2023-05-06T18:53:52.533Z,50.31
2023-05-06T18:56:24.360Z,51.17
2023-05-06T18:58:56.586Z,50.73
2023-05-06T19:01:30.505Z,51.10
2023-05-06T19:04:02.367Z,51.40
2023-05-06T19:06:34.733Z,50.62
2023-05-06T19:09:09.388Z,50.70
2023-05-06T19:11:41.144Z,51.11
2023-05-06T19:14:13.002Z,50.76
2023-05-06T19:16:45.112Z,50.58
2023-05-06T19:19:16.821Z,50.90
2023-05-06T19:21:48.577Z,50.91
2023-05-06T19:24:20.291Z,51.12
2023-05-06T19:26:52.035Z,51.34
2023-05-06T19:29:25.871Z,51.83
2023-05-06T19:31:57.565Z,51.86
2023-05-06T19:34:29.500Z,51.40
2023-05-06T19:37:01.594Z,51.48
2023-05-06T19:39:33.261Z,51.34
2023-05-06T19:42:05.411Z,51.77
2023-05-06T19:44:37.167Z,51.70
2023-05-06T19:47:09.131Z,51.73
2023-05-06T19:49:40.886Z,51.52
2023-05-06T19:52:12.911Z,51.33
2023-05-06T19:54:44.633Z,51.96
2023-05-06T19:57:16.437Z,52.07
2023-05-06T19:59:48.244Z,52.81
2023-05-06T20:02:20.395Z,53.39
2023-05-06T20:04:52.182Z,53.38
2023-05-06T20:07:27.779Z,53.44
2023-05-06T20:09:59.606Z,53.49
2023-05-06T20:12:31.373Z,53.82
2023-05-06T20:15:06.975Z,54.74
2023-05-06T20:17:38.866Z,55.15
2023-05-06T20:20:11.702Z,54.73
2023-05-06T20:22:43.655Z,54.85
2023-05-06T20:25:17.558Z,55.34
2023-05-06T20:27:49.379Z,55.37
2023-05-06T20:30:21.395Z,55.74
2023-05-06T20:32:53.255Z,56.03
2023-05-06T20:35:25.735Z,56.74
2023-05-06T20:37:57.557Z,56.79
2023-05-06T20:40:29.326Z,56.84
2023-05-06T20:43:01.216Z,57.38
2023-05-06T20:45:35.419Z,57.24
2023-05-06T20:48:07.330Z,57.49
2023-05-06T20:50:39.142Z,57.85
2023-05-06T20:53:11.067Z,58.49
2023-05-06T20:55:43.292Z,58.53
2023-05-06T20:58:15.182Z,58.40
2023-05-06T21:00:46.922Z,58.66
2023-05-06T21:03:18.709Z,58.82
2023-05-06T21:05:50.612Z,59.09
2023-05-06T21:08:22.440Z,59.05
2023-05-06T21:10:54.185Z,59.19
2023-05-06T21:13:26.058Z,59.77
2023-05-06T21:15:59.115Z,60.41
2023-05-06T21:18:30.989Z,61.20
2023-05-06T21:21:03.120Z,62.14
2023-05-06T21:23:35.511Z,62.47
2023-05-06T21:26:07.476Z,62.88
2023-05-06T21:28:39.249Z,62.54
2023-05-06T21:31:11.057Z,62.99
2023-05-06T21:33:42.874Z,63.58
2023-05-06T21:36:14.572Z,63.89
2023-05-06T21:38:59.709Z,64.23
2023-05-06T21:41:31.509Z,64.38
2023-05-06T21:44:04.306Z,64.87
2023-05-06T21:46:37.835Z,65.35
2023-05-06T21:49:09.813Z,65.40
2023-05-06T21:51:44.527Z,65.92
2023-05-06T21:54:17.417Z,66.37
2023-05-06T21:56:49.595Z,66.25
2023-05-06T21:59:21.649Z,66.38
2023-05-06T22:01:53.517Z,66.38
2023-05-06T22:04:26.288Z,66.87
2023-05-06T22:07:00.943Z,67.03
2023-05-06T22:09:32.541Z,67.59
2023-05-06T22:12:06.765Z,67.16
2023-05-06T22:14:41.573Z,67.26
2023-05-06T22:17:13.535Z,67.13
2023-05-06T22:19:45.369Z,67.26
2023-05-06T22:22:17.388Z,67.05
2023-05-06T22:24:50.501Z,66.79
2023-05-06T22:27:22.224Z,67.08
2023-05-06T22:29:53.916Z,67.11
2023-05-06T22:32:25.728Z,67.35
2023-05-06T22:34:57.483Z,67.38
2023-05-06T22:37:29.249Z,67.03
2023-05-06T22:40:04.359Z,67.06
2023-05-06T22:42:39.041Z,67.29
2023-05-06T22:45:10.982Z,67.17
2023-05-06T22:47:43.076Z,67.46
2023-05-06T22:50:14.910Z,67.35
2023-05-06T22:52:46.683Z,67.84
2023-05-06T22:55:18.474Z,67.60
2023-05-06T22:57:50.266Z,67.38
2023-05-06T23:00:22.778Z,67.14
2023-05-06T23:02:54.484Z,67.17
2023-05-06T23:05:26.229Z,67.00
2023-05-06T23:07:57.952Z,67.15
2023-05-06T23:10:29.721Z,67.15
2023-05-06T23:13:02.503Z,66.81
2023-05-06T23:15:34.290Z,66.79
2023-05-06T23:18:06.722Z,66.81
2023-05-06T23:20:38.580Z,66.76
2023-05-06T23:23:10.790Z,67.10
2023-05-06T23:25:42.670Z,66.44
2023-05-06T23:28:14.336Z,65.94
2023-05-06T23:30:46.336Z,66.05
2023-05-06T23:33:18.034Z,66.03
2023-05-06T23:35:52.979Z,65.56
2023-05-06T23:38:25.007Z,65.86
2023-05-06T23:40:56.829Z,65.64
2023-05-06T23:43:28.498Z,65.25
2023-05-06T23:46:00.366Z,65.74
2023-05-06T23:48:32.108Z,65.52
2023-05-06T23:51:04.004Z,65.00
2023-05-06T23:53:36.164Z,65.14
2023-05-06T23:56:07.884Z,65.33
2023-05-06T23:58:39.612Z,64.88
